createdAt,value
2018-12-15T00:01:02.250Z,102686.10
2018-12-15T00:03:34.420Z,102690.83
2018-12-15T00:06:06.489Z,102683.83
2018-12-15T00:08:36.590Z,102683.58
2018-12-15T00:11:06.620Z,102686.23
2018-12-15T00:13:38.480Z,102686.34
2018-12-15T00:16:08.710Z,102679.72
2018-12-15T00:18:38.962Z,102680.10
2018-12-15T00:21:09.219Z,102682.25
2018-12-15T00:23:39.279Z,102685.52
2018-12-15T00:26:09.392Z,102687.94
2018-12-15T00:28:39.418Z,102688.41
2018-12-15T00:31:09.632Z,102694.80
2018-12-15T00:33:40.785Z,102695.99
2018-12-15T00:36:10.820Z,102697.08
2018-12-15T00:38:40.935Z,102699.94
2018-12-15T00:41:10.967Z,102695.15
2018-12-15T00:43:41.078Z,102700.91
2018-12-15T00:46:11.038Z,102701.41
2018-12-15T00:48:41.022Z,102703.33
2018-12-15T00:51:11.124Z,102704.66
2018-12-15T00:53:41.144Z,102702.47
2018-12-15T00:56:11.085Z,102701.29
2018-12-15T00:58:42.242Z,102708.14
2018-12-15T01:01:12.254Z,102708.37
2018-12-15T01:03:42.422Z,102714.51
2018-12-15T01:06:12.462Z,102713.08
2018-12-15T01:08:42.452Z,102716.31
2018-12-15T01:11:12.632Z,102721.03
2018-12-15T01:13:42.658Z,102721.39
2018-12-15T01:16:12.805Z,102717.30
2018-12-15T01:18:42.940Z,102712.23
2018-12-15T01:21:13.005Z,102711.52
2018-12-15T01:23:42.988Z,102714.41
2018-12-15T01:26:13.340Z,102721.39
2018-12-15T01:28:43.380Z,102725.47
2018-12-15T01:31:14.856Z,102726.80
2018-12-15T01:33:44.934Z,102720.55
2018-12-15T01:36:15.047Z,102721.61
2018-12-15T01:38:45.256Z,102726.67
2018-12-15T01:41:15.357Z,102720.66
2018-12-15T01:43:45.472Z,102725.25
2018-12-15T01:46:15.676Z,102724.63
2018-12-15T01:48:47.275Z,102727.28
2018-12-15T01:51:17.422Z,102728.84
2018-12-15T01:53:47.539Z,102731.49
2018-12-15T01:56:19.025Z,102727.89
2018-12-15T01:58:49.180Z,102726.33
2018-12-15T02:01:19.264Z,102723.77
2018-12-15T02:03:51.225Z,102727.53
2018-12-15T02:06:23.288Z,102727.66
2018-12-15T02:08:55.083Z,102727.41
2018-12-15T02:11:27.358Z,102734.62
2018-12-15T02:13:57.514Z,102732.92
2018-12-15T02:16:27.515Z,102736.31
2018-12-15T02:18:57.644Z,102737.84
2018-12-15T02:21:27.741Z,102737.97
2018-12-15T02:23:57.728Z,102735.45
2018-12-15T02:26:27.780Z,102740.38
2018-12-15T02:28:57.846Z,102736.41
2018-12-15T02:31:27.925Z,102734.38
2018-12-15T02:33:57.960Z,102735.33
2018-12-15T02:36:29.666Z,102738.22
2018-12-15T02:38:59.767Z,102731.48
2018-12-15T02:41:31.695Z,102729.69
2018-12-15T02:44:01.863Z,102728.34
2018-12-15T02:46:31.956Z,102733.17
2018-12-15T02:49:01.994Z,102736.28
2018-12-15T02:51:32.051Z,102740.04
2018-12-15T02:54:02.256Z,102732.68
2018-12-15T02:56:32.446Z,102731.36
2018-12-15T02:59:02.454Z,102734.73
2018-12-15T03:01:32.585Z,102728.83
2018-12-15T03:04:02.648Z,102731.84
2018-12-15T03:06:32.816Z,102726.06
2018-12-15T03:09:02.827Z,102723.17
2018-12-15T03:11:34.934Z,102724.27
2018-12-15T03:14:05.025Z,102727.05
2018-12-15T03:16:34.905Z,102721.74
2018-12-15T03:19:12.340Z,102727.41
2018-12-15T03:21:42.262Z,102718.02
2018-12-15T03:24:12.283Z,102729.57
2018-12-15T03:26:42.278Z,102723.44
2018-12-15T03:29:12.156Z,102720.52
2018-12-15T03:31:42.078Z,102720.67
2018-12-15T03:34:12.068Z,102726.80
2018-12-15T03:36:41.927Z,102730.89
2018-12-15T03:39:11.984Z,102721.16
2018-12-15T03:41:42.109Z,102712.97
2018-12-15T03:44:12.225Z,102717.30
2018-12-15T03:46:42.230Z,102718.39
2018-12-15T03:49:12.273Z,102728.86
2018-12-15T03:51:42.248Z,102725.72
2018-12-15T03:54:12.334Z,102724.98
2018-12-15T03:56:42.330Z,102733.66
2018-12-15T03:59:12.413Z,102736.06
2018-12-15T04:01:42.446Z,102730.89
2018-12-15T04:04:12.400Z,102731.97
2018-12-15T04:06:42.549Z,102729.07
2018-12-15T04:09:12.561Z,102739.30
2018-12-15T04:11:42.480Z,102740.40
2018-12-15T04:14:14.277Z,102738.22
2018-12-15T04:16:46.100Z,102736.80
2018-12-15T04:19:16.217Z,102740.16
2018-12-15T04:21:46.359Z,102737.50
2018-12-15T04:24:16.744Z,102731.25
2018-12-15T04:26:46.755Z,102735.11
2018-12-15T04:29:24.936Z,102729.32
2018-12-15T04:32:01.907Z,102732.70
2018-12-15T04:34:38.231Z,102723.77
2018-12-15T04:37:14.024Z,102730.06
2018-12-15T04:39:47.931Z,102731.59
2018-12-15T04:42:23.415Z,102739.66
2018-12-15T04:44:59.607Z,102738.98
2018-12-15T04:47:35.760Z,102728.97
2018-12-15T04:50:09.439Z,102737.39
2018-12-15T04:52:47.064Z,102736.31
2018-12-15T04:55:23.231Z,102739.91
2018-12-15T05:00:59.691Z,102738.25
2018-12-15T05:06:38.424Z,102740.77
2018-12-15T05:12:21.075Z,102738.58
2018-12-15T05:14:58.047Z,102739.20
2018-12-15T05:17:31.851Z,102736.42
2018-12-15T05:20:07.564Z,102732.83
2018-12-15T05:22:43.322Z,102732.34
2018-12-15T05:25:19.416Z,102731.50
2018-12-15T05:27:55.375Z,102735.23
2018-12-15T05:30:29.302Z,102737.88
2018-12-15T05:33:04.859Z,102734.86
2018-12-15T05:35:42.941Z,102733.05
2018-12-15T05:38:19.165Z,102740.74
2018-12-15T05:40:55.108Z,102744.61
2018-12-15T05:43:31.084Z,102743.05
2018-12-15T05:46:05.002Z,102750.75
2018-12-15T05:51:46.493Z,102749.42
2018-12-15T05:54:20.187Z,102741.84
2018-12-15T05:56:55.392Z,102745.20
2018-12-15T05:59:30.739Z,102746.19
2018-12-15T06:02:09.546Z,102740.03
2018-12-15T06:04:44.910Z,102740.53
2018-12-15T06:07:27.938Z,102745.70
2018-12-15T06:10:03.828Z,102742.80
2018-12-15T06:12:39.763Z,102746.52
2018-12-15T06:15:17.730Z,102737.02
2018-12-15T06:17:59.881Z,102737.97
2018-12-15T06:20:39.550Z,102737.76
2018-12-15T06:23:19.342Z,102738.70
2018-12-15T06:25:55.520Z,102743.55
2018-12-15T06:28:31.854Z,102744.95
2018-12-15T06:31:17.614Z,102740.65
2018-12-15T06:33:54.309Z,102739.55
2018-12-15T06:36:30.580Z,102741.72
2018-12-15T06:39:07.068Z,102745.35
2018-12-15T06:41:42.972Z,102741.97
2018-12-15T06:44:19.173Z,102740.98
2018-12-15T06:46:55.784Z,102738.34
2018-12-15T06:49:39.511Z,102738.83
2018-12-15T06:52:15.324Z,102738.70
2018-12-15T06:54:51.437Z,102736.19
2018-12-15T06:57:25.643Z,102741.36
2018-12-15T07:00:03.071Z,102736.42
2018-12-15T07:02:47.034Z,102736.42
2018-12-15T07:05:23.879Z,102737.38
2018-12-15T07:07:55.776Z,102742.31
2018-12-15T07:10:33.122Z,102738.13
2018-12-15T07:13:09.282Z,102741.97
2018-12-15T07:15:45.447Z,102742.31
2018-12-15T07:18:21.586Z,102746.65
2018-12-15T07:20:55.478Z,102745.72
2018-12-15T07:23:32.021Z,102749.32
2018-12-15T07:26:05.798Z,102752.22
2018-12-15T07:28:41.236Z,102750.03
2018-12-15T07:31:17.131Z,102752.92
2018-12-15T07:33:50.978Z,102745.45
2018-12-15T07:36:26.447Z,102742.95
2018-12-15T07:39:03.219Z,102747.51
2018-12-15T07:41:40.897Z,102746.92
2018-12-15T07:44:16.774Z,102746.19
2018-12-15T07:46:53.315Z,102742.94
2018-12-15T07:49:28.969Z,102746.30
2018-12-15T07:52:07.065Z,102744.27
2018-12-15T07:54:41.251Z,102743.44
2018-12-15T07:57:15.714Z,102745.84
2018-12-15T07:59:49.264Z,102746.92
2018-12-15T08:02:24.893Z,102744.76
2018-12-15T08:04:56.729Z,102749.47
2018-12-15T08:07:28.504Z,102746.20
2018-12-15T08:10:00.769Z,102744.63
2018-12-15T08:12:42.337Z,102752.22
2018-12-15T08:15:12.667Z,102754.27
2018-12-15T08:17:42.928Z,102750.55
2018-12-15T08:20:13.168Z,102758.61
2018-12-15T08:22:43.387Z,102761.48
2018-12-15T08:25:15.193Z,102756.18
2018-12-15T08:27:47.418Z,102755.95
2018-12-15T08:30:17.679Z,102755.58
2018-12-15T08:32:49.599Z,102761.50
2018-12-15T08:35:21.562Z,102757.64
2018-12-15T08:37:53.421Z,102755.83
2018-12-15T08:40:25.314Z,102757.02
2018-12-15T08:42:57.318Z,102759.80
2018-12-15T08:45:30.209Z,102757.27
2018-12-15T08:48:02.080Z,102753.20
2018-12-15T08:50:34.122Z,102754.14
2018-12-15T08:53:05.939Z,102760.40
2018-12-15T08:55:37.854Z,102756.33
2018-12-15T08:58:09.622Z,102762.09
2018-12-15T09:00:41.573Z,102767.17
2018-12-15T09:03:13.484Z,102759.55
2018-12-15T09:05:49.087Z,102760.17
2018-12-15T09:08:19.319Z,102769.34
2018-12-15T09:10:49.397Z,102774.64
2018-12-15T09:13:19.440Z,102762.92
2018-12-15T09:15:49.502Z,102763.42
2018-12-15T09:18:19.459Z,102768.47
2018-12-15T09:20:49.635Z,102764.38
2018-12-15T09:23:19.702Z,102764.25
2018-12-15T09:25:49.731Z,102771.84
2018-12-15T09:28:19.792Z,102775.09
2018-12-15T09:30:51.579Z,102769.17
2018-12-15T09:33:21.618Z,102771.59
2018-12-15T09:35:51.767Z,102774.71
2018-12-15T09:38:22.092Z,102777.12
2018-12-15T09:40:52.153Z,102774.61
2018-12-15T09:43:22.304Z,102772.30
2018-12-15T09:45:52.274Z,102765.67
2018-12-15T09:48:22.349Z,102766.89
2018-12-15T09:50:52.520Z,102767.47
2018-12-15T09:53:22.679Z,102772.06
2018-12-15T09:55:53.007Z,102764.47
2018-12-15T09:58:23.004Z,102766.77
2018-12-15T10:00:53.230Z,102763.03
2018-12-15T10:03:23.113Z,102763.86
2018-12-15T10:05:53.401Z,102758.81
2018-12-15T10:08:23.753Z,102767.13
2018-12-15T10:10:53.745Z,102761.34
2018-12-15T10:13:23.745Z,102764.23
2018-12-15T10:15:55.023Z,102753.98
2018-12-15T10:18:25.161Z,102750.60
2018-12-15T10:20:55.328Z,102747.36
2018-12-15T10:23:25.277Z,102748.69
2018-12-15T10:25:55.333Z,102743.02
2018-12-15T10:28:25.646Z,102749.96
2018-12-15T10:31:00.974Z,102739.25
2018-12-15T10:33:31.094Z,102738.50
2018-12-15T10:36:01.126Z,102732.39
2018-12-15T10:38:31.175Z,102726.83
2018-12-15T10:41:01.344Z,102728.75
2018-12-15T10:43:31.679Z,102720.79
2018-12-15T10:46:01.996Z,102719.33
2018-12-15T10:48:34.233Z,102714.89
2018-12-15T10:51:04.426Z,102710.55
2018-12-15T10:53:34.608Z,102703.42
2018-12-15T10:56:04.729Z,102707.03
2018-12-15T10:58:34.752Z,102702.80
2018-12-15T11:01:10.192Z,102698.58
2018-12-15T11:03:42.085Z,102693.27
2018-12-15T11:06:12.275Z,102693.38
2018-12-15T11:08:42.297Z,102690.13
2018-12-15T11:11:12.544Z,102691.18
2018-12-15T11:13:42.589Z,102694.66
2018-12-15T11:16:13.593Z,102690.69
2018-12-15T11:18:43.847Z,102685.97
2018-12-15T11:21:14.008Z,102682.09
2018-12-15T11:23:44.026Z,102691.14
2018-12-15T11:26:14.194Z,102686.94
2018-12-15T11:28:44.340Z,102687.39
2018-12-15T11:31:15.403Z,102671.91
2018-12-15T11:33:45.418Z,102667.58
2018-12-15T11:36:15.641Z,102666.15
2018-12-15T11:38:45.658Z,102664.05
2018-12-15T11:41:15.717Z,102658.29
2018-12-15T11:43:46.170Z,102662.36
2018-12-15T11:46:17.339Z,102664.84
2018-12-15T11:48:48.357Z,102664.38
2018-12-15T11:51:18.358Z,102666.21
2018-12-15T11:53:48.397Z,102667.03
2018-12-15T11:56:19.379Z,102663.83
2018-12-15T11:58:49.384Z,102659.98
2018-12-15T12:01:19.298Z,102658.52
2018-12-15T12:03:49.293Z,102658.70
2018-12-15T12:06:19.426Z,102652.76
2018-12-15T12:08:49.441Z,102657.73
2018-12-15T12:11:19.405Z,102648.67
2018-12-15T12:13:49.369Z,102650.37
2018-12-15T12:16:19.357Z,102646.03
2018-12-15T12:18:49.656Z,102640.99
2018-12-15T12:21:21.850Z,102640.27
2018-12-15T12:23:54.544Z,102634.13
2018-12-15T12:26:26.603Z,102629.23
2018-12-15T12:28:56.537Z,102627.08
2018-12-15T12:31:26.641Z,102625.06
2018-12-15T12:33:56.749Z,102626.15
2018-12-15T12:36:26.731Z,102623.83
2018-12-15T12:38:56.838Z,102621.94
2018-12-15T12:41:26.990Z,102622.50
2018-12-15T12:43:57.352Z,102618.89
2018-12-15T12:46:27.308Z,102623.13
2018-12-15T12:49:04.924Z,102623.13
2018-12-15T12:51:40.966Z,102618.77
2018-12-15T12:54:10.909Z,102616.24
2018-12-15T12:56:41.151Z,102615.41
2018-12-15T12:59:11.241Z,102615.81
2018-12-15T13:01:41.342Z,102610.54
2018-12-15T13:04:11.297Z,102606.40
2018-12-15T13:06:41.386Z,102604.48
2018-12-15T13:09:12.542Z,102608.59
2018-12-15T13:11:42.485Z,102607.62
2018-12-15T13:14:12.644Z,102605.70
2018-12-15T13:16:43.623Z,102602.92
2018-12-15T13:19:13.780Z,102595.20
2018-12-15T13:21:43.644Z,102599.47
2018-12-15T13:24:13.789Z,102597.39
2018-12-15T13:26:43.835Z,102595.59
2018-12-15T13:29:13.910Z,102597.52
2018-12-15T13:31:43.822Z,102595.23
2018-12-15T13:34:13.807Z,102596.13
2018-12-15T13:36:44.091Z,102584.89
2018-12-15T13:39:13.944Z,102586.91
2018-12-15T13:41:44.019Z,102582.70
2018-12-15T13:44:13.877Z,102582.48
2018-12-15T13:46:43.939Z,102578.37
2018-12-15T13:49:13.994Z,102581.19
2018-12-15T13:51:43.972Z,102579.03
2018-12-15T13:54:13.865Z,102579.26
2018-12-15T13:56:43.814Z,102576.71
2018-12-15T13:59:13.887Z,102568.42
2018-12-15T14:01:43.746Z,102567.90
2018-12-15T14:04:13.701Z,102566.48
2018-12-15T14:06:47.066Z,102556.50
2018-12-15T14:09:21.155Z,102561.17
2018-12-15T14:12:03.674Z,102562.63
2018-12-15T14:14:44.424Z,102559.48
2018-12-15T14:17:19.665Z,102555.67
2018-12-15T14:19:53.459Z,102551.80
2018-12-15T14:22:29.762Z,102551.47
2018-12-15T14:25:01.462Z,102540.17
2018-12-15T14:27:31.441Z,102551.47
2018-12-15T14:30:07.575Z,102544.84
2018-12-15T14:32:43.207Z,102547.03
2018-12-15T14:35:19.299Z,102543.68
2018-12-15T14:37:58.935Z,102541.50
2018-12-15T14:43:40.017Z,102535.23
2018-12-15T14:46:14.758Z,102531.50
2018-12-15T14:48:51.044Z,102528.25
2018-12-15T14:51:26.982Z,102522.45
2018-12-15T14:54:01.089Z,102519.21
2018-12-15T14:56:35.068Z,102520.27
2018-12-15T14:59:21.646Z,102518.72
2018-12-15T15:01:59.348Z,102517.88
2018-12-15T15:04:35.586Z,102514.64
2018-12-15T15:07:09.429Z,102507.81
2018-12-15T15:09:45.705Z,102511.79
2018-12-15T15:12:22.925Z,102503.25
2018-12-15T15:14:59.186Z,102497.45
2018-12-15T15:17:32.805Z,102495.44
2018-12-15T15:20:09.349Z,102499.07
2018-12-15T15:22:45.427Z,102493.52
2018-12-15T15:25:21.412Z,102484.73
2018-12-15T15:28:01.585Z,102480.50
2018-12-15T15:30:35.674Z,102480.00
2018-12-15T15:33:11.594Z,102476.20
2018-12-15T15:35:47.433Z,102477.66
2018-12-15T15:38:24.814Z,102477.16
2018-12-15T15:41:00.581Z,102472.36
2018-12-15T15:43:36.641Z,102466.59
2018-12-15T15:46:10.437Z,102467.91
2018-12-15T15:48:47.426Z,102462.39
2018-12-15T15:51:25.195Z,102464.30
2018-12-15T15:54:01.094Z,102460.20
2018-12-15T15:56:36.849Z,102453.13
2018-12-15T15:59:19.843Z,102451.80
2018-12-15T16:01:57.705Z,102451.56
2018-12-15T16:04:33.706Z,102447.83
2018-12-15T16:07:09.921Z,102447.95
2018-12-15T16:09:45.573Z,102439.42
2018-12-15T16:12:21.861Z,102434.82
2018-12-15T16:14:58.565Z,102435.81
2018-12-15T16:17:34.814Z,102424.59
2018-12-15T16:20:12.952Z,102422.58
2018-12-15T16:22:48.884Z,102416.65
2018-12-15T16:25:22.885Z,102411.39
2018-12-15T16:27:56.807Z,102407.05
2018-12-15T16:30:32.869Z,102401.62
2018-12-15T16:33:09.731Z,102401.76
2018-12-15T16:35:45.773Z,102394.88
2018-12-15T16:38:22.056Z,102390.44
2018-12-15T16:40:57.784Z,102383.83
2018-12-15T16:43:31.846Z,102374.23
2018-12-15T16:46:05.078Z,102373.30
2018-12-15T16:48:42.326Z,102375.45
2018-12-15T16:51:18.383Z,102375.85
2018-12-15T16:53:52.152Z,102368.47
2018-12-15T16:56:27.801Z,102374.27
2018-12-15T16:58:57.795Z,102372.34
2018-12-15T17:01:38.117Z,102364.41
2018-12-15T17:04:13.791Z,102362.09
2018-12-15T17:06:49.964Z,102355.97
2018-12-15T17:09:30.114Z,102364.50
2018-12-15T17:15:09.651Z,102362.19
2018-12-15T17:17:45.508Z,102356.00
2018-12-15T17:20:15.795Z,102349.98
2018-12-15T17:22:47.069Z,102339.86
2018-12-15T17:25:17.059Z,102331.19
2018-12-15T17:27:47.381Z,102327.22
2018-12-15T17:30:17.346Z,102325.56
2018-12-15T17:32:47.350Z,102322.42
2018-12-15T17:35:23.360Z,102320.88
2018-12-15T17:38:01.453Z,102312.94
2018-12-15T17:40:33.171Z,102310.38
2018-12-15T17:43:11.450Z,102315.64
2018-12-15T17:45:43.308Z,102310.66
2018-12-15T17:48:13.359Z,102306.64
2018-12-15T17:50:48.498Z,102294.59
2018-12-15T17:53:40.321Z,102291.50
2018-12-15T17:56:10.519Z,102292.58
2018-12-15T17:58:49.321Z,102285.79
2018-12-15T18:01:25.432Z,102267.67
2018-12-15T18:03:59.483Z,102274.42
2018-12-15T18:06:34.438Z,102278.25
2018-12-15T18:09:21.925Z,102278.39
2018-12-15T18:11:55.045Z,102287.98
2018-12-15T18:14:30.506Z,102274.75
2018-12-15T18:17:06.253Z,102275.52
2018-12-15T18:22:38.767Z,102267.40
2018-12-15T18:25:21.572Z,102272.69
2018-12-15T18:27:57.276Z,102261.52
2018-12-15T18:30:39.377Z,102255.44
2018-12-15T18:33:37.015Z,102252.16
2018-12-15T18:36:23.822Z,102230.81
2018-12-15T18:39:11.684Z,102227.88
2018-12-15T18:41:59.886Z,102227.66
2018-12-15T18:44:36.397Z,102213.83
2018-12-15T18:47:12.013Z,102214.75
2018-12-15T18:49:46.076Z,102212.73
2018-12-15T18:52:28.097Z,102211.77
2018-12-15T18:55:05.030Z,102207.17
2018-12-15T18:57:43.772Z,102204.66
2018-12-15T19:00:26.385Z,102205.76
2018-12-15T19:03:04.077Z,102195.67
2018-12-15T19:05:40.347Z,102184.95
2018-12-15T19:08:20.918Z,102187.37
2018-12-15T19:10:56.662Z,102180.89
2018-12-15T19:13:31.027Z,102178.27
2018-12-15T19:16:08.354Z,102175.93
2018-12-15T19:21:45.454Z,102168.95
2018-12-15T19:24:28.043Z,102170.73
2018-12-15T19:27:10.561Z,102179.27
2018-12-15T19:32:52.757Z,102166.77
2018-12-15T19:35:29.969Z,102142.30
2018-12-15T19:38:16.484Z,102155.73
2018-12-15T19:40:58.383Z,102146.11
2018-12-15T19:43:38.938Z,102143.91
2018-12-15T19:46:13.726Z,102132.61
2018-12-15T19:48:51.192Z,102137.81
2018-12-15T19:51:40.276Z,102135.98
2018-12-15T19:54:22.859Z,102135.98
2018-12-15T19:57:00.086Z,102132.39
2018-12-15T19:59:38.300Z,102136.66
2018-12-15T20:02:18.919Z,102143.86
2018-12-15T20:14:00.947Z,102106.36
2018-12-15T20:19:38.438Z,102084.66
2018-12-15T20:22:16.058Z,102088.58
2018-12-15T20:24:53.579Z,102081.30
2018-12-15T20:27:29.305Z,102081.60
2018-12-15T20:30:05.824Z,102074.63
2018-12-15T20:32:42.550Z,102057.71
2018-12-15T20:35:14.145Z,102061.81
2018-12-15T20:37:48.194Z,102045.75
2018-12-15T20:42:58.795Z,102030.54
2018-12-15T20:45:31.394Z,102028.31
2018-12-15T20:48:03.701Z,102026.71
2018-12-15T20:50:33.833Z,102028.11
2018-12-15T20:53:04.021Z,102022.72
2018-12-15T20:55:34.786Z,102025.39
2018-12-15T20:58:04.831Z,102021.58
2018-12-15T21:00:34.870Z,102017.97
2018-12-15T21:03:05.107Z,102007.80
2018-12-15T21:05:38.336Z,102003.91
2018-12-15T21:08:08.461Z,102003.17
2018-12-15T21:10:38.573Z,101989.83
2018-12-15T21:13:08.595Z,101997.16
2018-12-15T21:15:42.833Z,101985.97
2018-12-15T21:18:13.311Z,101979.61
2018-12-15T21:20:43.356Z,101973.70
2018-12-15T21:23:13.418Z,101962.02
2018-12-15T21:25:43.755Z,101967.02
2018-12-15T21:28:13.838Z,101966.58
2018-12-15T21:30:43.894Z,101965.27
2018-12-15T21:33:13.897Z,101962.69
2018-12-15T21:35:45.045Z,101965.70
2018-12-15T21:38:15.151Z,101966.80
2018-12-15T21:40:45.150Z,101960.41
2018-12-15T21:43:15.394Z,101959.08
2018-12-15T21:45:45.574Z,101960.05
2018-12-15T21:48:16.346Z,101947.78
2018-12-15T21:50:46.442Z,101951.96
2018-12-15T21:53:16.800Z,101954.61
2018-12-15T21:55:46.795Z,101953.17
2018-12-15T21:58:16.877Z,101949.09
2018-12-15T22:00:55.976Z,101945.59
2018-12-15T22:03:31.941Z,101944.70
2018-12-15T22:06:19.836Z,101946.39
2018-12-15T22:09:03.810Z,101952.47
2018-12-15T22:14:39.208Z,101934.02
2018-12-15T22:17:16.310Z,101931.95
2018-12-15T22:19:49.903Z,101931.02
2018-12-15T22:22:32.285Z,101920.98
2018-12-15T22:25:08.512Z,101912.72
2018-12-15T22:27:38.491Z,101914.28
2018-12-15T22:30:14.825Z,101903.45
2018-12-15T22:35:57.953Z,101889.05
2018-12-15T22:38:35.679Z,101879.03
2018-12-15T22:41:11.898Z,101877.06
2018-12-15T22:44:02.080Z,101873.38
2018-12-15T22:46:39.345Z,101872.88
2018-12-15T22:49:11.114Z,101858.98
2018-12-15T22:51:48.226Z,101847.97
2018-12-15T22:54:26.132Z,101714.02
2018-12-15T22:57:20.016Z,101856.23
2018-12-15T22:59:51.732Z,101832.71
2018-12-15T23:02:29.017Z,101836.11
2018-12-15T23:05:07.823Z,101820.41
2018-12-15T23:07:45.449Z,101819.13
2018-12-15T23:10:27.303Z,101809.19
2018-12-15T23:16:05.731Z,101786.34
2018-12-15T23:18:47.158Z,101779.72
2018-12-15T23:21:30.273Z,101767.08
2018-12-15T23:24:05.425Z,101751.88
2018-12-15T23:26:40.968Z,101755.70
2018-12-15T23:29:25.152Z,101753.89
2018-12-15T23:38:04.602Z,101741.97
2018-12-15T23:40:40.652Z,101742.25
2018-12-15T23:43:16.717Z,101731.69
2018-12-15T23:45:52.529Z,101731.33
2018-12-15T23:48:28.559Z,101738.14
2018-12-15T23:51:04.462Z,101738.32
2018-12-15T23:53:38.259Z,101729.08
2018-12-15T23:56:13.815Z,101728.03
